createdAt,value
2018-06-09T00:00:01.749Z,13.63
2018-06-09T00:01:05.200Z,11.57
2018-06-09T00:02:08.630Z,12.57
2018-06-09T00:03:12.040Z,12.80
2018-06-09T00:04:15.448Z,12.80
2018-06-09T00:05:18.891Z,12.87
2018-06-09T00:06:22.322Z,14.97
2018-06-09T00:07:25.753Z,12.13
2018-06-09T00:08:29.163Z,11.20
2018-06-09T00:09:32.550Z,12.90
2018-06-09T00:10:35.963Z,15.10
2018-06-09T00:11:39.402Z,12.77
2018-06-09T00:12:42.842Z,12.80
2018-06-09T00:13:46.280Z,12.10
2018-06-09T00:14:49.708Z,12.40
2018-06-09T00:15:53.139Z,12.83
2018-06-09T00:16:56.572Z,12.47
2018-06-09T00:17:59.996Z,12.10
2018-06-09T00:19:03.424Z,12.57
2018-06-09T00:20:06.874Z,12.80
2018-06-09T00:21:10.262Z,12.30
2018-06-09T00:22:13.664Z,11.53
2018-06-09T00:23:17.095Z,12.30
2018-06-09T00:24:20.498Z,13.13
2018-06-09T00:25:23.926Z,12.23
2018-06-09T00:26:27.323Z,12.27
2018-06-09T00:27:30.731Z,12.73
2018-06-09T00:28:34.185Z,11.97
2018-06-09T00:29:37.865Z,11.57
2018-06-09T00:30:41.311Z,12.60
2018-06-09T00:31:44.732Z,12.30
2018-06-09T00:32:48.133Z,12.17
2018-06-09T00:33:51.540Z,13.90
2018-06-09T00:34:55.007Z,12.17
2018-06-09T00:35:58.452Z,12.73
2018-06-09T00:37:01.887Z,11.07
2018-06-09T00:38:05.362Z,11.97
2018-06-09T00:39:08.972Z,12.43
2018-06-09T00:40:12.350Z,12.33
2018-06-09T00:41:15.782Z,11.77
2018-06-09T00:42:19.221Z,12.23
2018-06-09T00:43:22.634Z,12.53
2018-06-09T00:44:26.151Z,12.90
2018-06-09T00:45:29.660Z,13.40
2018-06-09T00:46:33.111Z,12.00
2018-06-09T00:47:36.526Z,11.33
2018-06-09T00:48:39.959Z,12.07
2018-06-09T00:49:43.365Z,12.30
2018-06-09T00:50:46.784Z,11.93
2018-06-09T00:51:50.211Z,12.17
2018-06-09T00:52:53.635Z,12.37
2018-06-09T00:53:57.090Z,11.07
2018-06-09T00:55:00.500Z,12.10
2018-06-09T00:56:15.251Z,12.10
2018-06-09T00:57:18.631Z,11.70
2018-06-09T00:58:22.049Z,13.00
2018-06-09T00:59:25.460Z,12.50
2018-06-09T01:00:28.875Z,11.90
2018-06-09T01:01:32.327Z,11.87
2018-06-09T01:02:35.710Z,11.63
2018-06-09T01:03:39.118Z,11.83
2018-06-09T01:04:43.341Z,13.13
2018-06-09T01:05:46.757Z,12.70
2018-06-09T01:06:50.148Z,11.40
2018-06-09T01:07:53.569Z,11.03
2018-06-09T01:08:57.004Z,11.63
2018-06-09T01:10:00.423Z,12.33
2018-06-09T01:11:03.839Z,12.03
2018-06-09T01:12:07.239Z,11.40
2018-06-09T01:13:10.654Z,12.27
2018-06-09T01:14:14.053Z,12.73
2018-06-09T01:15:17.441Z,12.10
2018-06-09T01:16:20.882Z,12.00
2018-06-09T01:17:24.276Z,10.43
2018-06-09T01:18:27.760Z,11.83
2018-06-09T01:19:31.223Z,11.77
2018-06-09T01:20:34.725Z,11.57
2018-06-09T01:21:38.106Z,11.57
2018-06-09T01:22:41.504Z,11.73
2018-06-09T01:23:44.952Z,11.97
2018-06-09T01:24:48.345Z,11.10
2018-06-09T01:25:51.769Z,11.17
2018-06-09T01:26:55.164Z,11.00
2018-06-09T01:27:58.585Z,11.60
2018-06-09T01:29:02.024Z,12.37
2018-06-09T01:30:05.472Z,11.23
2018-06-09T01:31:08.886Z,10.73
2018-06-09T01:32:12.367Z,10.30
2018-06-09T01:33:15.773Z,11.13
2018-06-09T01:34:19.177Z,10.73
2018-06-09T01:35:22.592Z,11.40
2018-06-09T01:36:26.012Z,12.00
2018-06-09T01:37:29.518Z,10.83
2018-06-09T01:38:32.934Z,12.20
2018-06-09T01:39:36.366Z,10.93
2018-06-09T01:40:39.774Z,10.53
2018-06-09T01:41:43.195Z,11.30
2018-06-09T01:42:46.582Z,11.13
2018-06-09T01:43:49.957Z,10.67
2018-06-09T01:44:53.369Z,11.07
2018-06-09T01:45:56.742Z,11.20
2018-06-09T01:47:00.140Z,10.40
2018-06-09T01:48:03.615Z,11.93
2018-06-09T01:49:07.035Z,10.90
2018-06-09T01:50:10.459Z,10.53
2018-06-09T01:51:13.864Z,12.03
2018-06-09T01:52:17.252Z,9.90
2018-06-09T01:53:20.652Z,11.10
2018-06-09T01:54:24.044Z,11.73
2018-06-09T01:55:27.459Z,10.43
2018-06-09T01:56:30.892Z,10.43
2018-06-09T01:57:34.315Z,10.70
2018-06-09T01:58:37.719Z,10.57
2018-06-09T01:59:41.123Z,12.40
2018-06-09T02:00:44.587Z,11.00
2018-06-09T02:01:47.991Z,10.47
2018-06-09T02:02:51.403Z,11.23
2018-06-09T02:03:54.785Z,12.27
2018-06-09T02:04:58.215Z,11.13
2018-06-09T02:06:01.616Z,12.13
2018-06-09T02:07:05.025Z,10.93
2018-06-09T02:08:08.474Z,11.20
2018-06-09T02:09:11.865Z,10.47
2018-06-09T02:10:15.262Z,11.00
2018-06-09T02:11:18.673Z,10.70
2018-06-09T02:12:22.320Z,12.10
2018-06-09T02:13:25.727Z,11.40
2018-06-09T02:14:29.161Z,10.43
2018-06-09T02:15:32.554Z,10.90
2018-06-09T02:16:35.934Z,11.00
2018-06-09T02:17:39.328Z,11.13
2018-06-09T02:18:42.733Z,11.20
2018-06-09T02:19:46.111Z,11.40
2018-06-09T02:20:49.569Z,9.57
2018-06-09T02:21:52.942Z,10.40
2018-06-09T02:22:56.341Z,11.40
2018-06-09T02:23:59.762Z,10.87
2018-06-09T02:25:03.282Z,11.77
2018-06-09T02:26:06.688Z,10.50
2018-06-09T02:27:10.084Z,10.20
2018-06-09T02:28:13.507Z,10.30
2018-06-09T02:29:16.902Z,10.30
2018-06-09T02:30:20.313Z,10.03
2018-06-09T02:31:23.720Z,10.80
2018-06-09T02:32:27.122Z,12.00
2018-06-09T02:33:30.503Z,10.00
2018-06-09T02:34:33.900Z,11.67
2018-06-09T02:35:37.289Z,24.63
2018-06-09T02:36:40.714Z,18.10
2018-06-09T02:37:44.127Z,30.77
2018-06-09T02:38:47.523Z,16.47
2018-06-09T02:39:50.914Z,16.17
2018-06-09T02:40:54.350Z,14.90
2018-06-09T02:41:57.758Z,12.13
2018-06-09T02:43:01.275Z,11.10
2018-06-09T02:44:04.696Z,15.03
2018-06-09T02:45:08.112Z,18.57
2018-06-09T02:46:11.565Z,17.23
2018-06-09T02:47:14.995Z,24.77
2018-06-09T02:48:18.395Z,27.10
2018-06-09T02:49:21.789Z,22.60
2018-06-09T02:50:25.225Z,18.17
2018-06-09T02:51:28.646Z,19.30
2018-06-09T02:52:32.052Z,21.80
2018-06-09T02:53:35.430Z,15.40
2018-06-09T02:54:38.885Z,22.40
2018-06-09T02:55:42.277Z,21.70
2018-06-09T02:56:45.692Z,33.13
2018-06-09T02:57:49.103Z,30.10
2018-06-09T02:58:52.500Z,33.90
2018-06-09T02:59:55.889Z,41.23
2018-06-09T03:00:59.300Z,31.87
2018-06-09T03:02:02.716Z,31.87
2018-06-09T03:03:06.129Z,27.47
2018-06-09T03:04:09.572Z,36.57
2018-06-09T03:05:12.991Z,39.80
2018-06-09T03:06:16.403Z,33.40
2018-06-09T03:07:19.854Z,29.73
2018-06-09T03:08:23.260Z,20.37
2018-06-09T03:09:26.683Z,27.57
2018-06-09T03:10:30.096Z,26.63
2018-06-09T03:11:33.473Z,21.53
2018-06-09T03:12:36.885Z,26.03
2018-06-09T03:13:40.283Z,25.63
2018-06-09T03:14:43.670Z,27.33
2018-06-09T03:15:47.079Z,17.90
2018-06-09T03:16:50.491Z,20.07
2018-06-09T03:17:53.901Z,20.60
2018-06-09T03:18:57.277Z,23.27
2018-06-09T03:20:00.661Z,31.97
2018-06-09T03:21:04.060Z,27.87
2018-06-09T03:22:07.462Z,22.83
2018-06-09T03:23:10.874Z,14.33
2018-06-09T03:24:14.249Z,24.33
2018-06-09T03:25:17.686Z,25.93
2018-06-09T03:26:21.054Z,16.57
2018-06-09T03:27:24.448Z,26.80
2018-06-09T03:28:27.879Z,19.73
2018-06-09T03:29:31.272Z,18.63
2018-06-09T03:30:34.683Z,23.37
2018-06-09T03:31:38.108Z,21.30
2018-06-09T03:32:41.523Z,12.50
2018-06-09T03:33:44.948Z,29.80
2018-06-09T03:34:48.358Z,27.63
2018-06-09T03:35:51.753Z,15.77
2018-06-09T03:36:55.160Z,19.10
2018-06-09T03:37:58.639Z,19.43
2018-06-09T03:39:02.055Z,17.17
2018-06-09T03:40:05.484Z,23.03
2018-06-09T03:41:08.880Z,27.17
2018-06-09T03:42:12.284Z,14.53
2018-06-09T03:43:15.720Z,22.23
2018-06-09T03:44:19.143Z,12.63
2018-06-09T03:45:22.655Z,14.80
2018-06-09T03:46:26.078Z,23.13
2018-06-09T03:47:29.511Z,14.63
2018-06-09T03:48:32.927Z,14.90
2018-06-09T03:49:36.367Z,25.00
2018-06-09T03:50:39.750Z,14.50
2018-06-09T03:51:43.125Z,18.13
2018-06-09T03:52:46.543Z,11.90
2018-06-09T03:53:49.972Z,12.70
2018-06-09T03:54:53.398Z,16.27
2018-06-09T03:55:56.811Z,15.40
2018-06-09T03:57:00.189Z,14.43
2018-06-09T03:58:03.764Z,19.20
2018-06-09T03:59:07.187Z,18.00
2018-06-09T04:00:10.604Z,16.03
2018-06-09T04:01:14.027Z,19.13
2018-06-09T04:02:17.425Z,12.27
2018-06-09T04:03:20.835Z,17.10
2018-06-09T04:04:24.254Z,15.27
2018-06-09T04:05:27.653Z,16.43
2018-06-09T04:06:31.105Z,18.20
2018-06-09T04:07:34.529Z,19.10
2018-06-09T04:08:37.943Z,15.37
2018-06-09T04:09:41.356Z,10.53
2018-06-09T04:10:44.752Z,15.60
2018-06-09T04:11:48.130Z,16.30
2018-06-09T04:12:51.540Z,15.50
2018-06-09T04:13:54.960Z,13.80
2018-06-09T04:14:58.361Z,15.03
2018-06-09T04:16:01.775Z,15.93
2018-06-09T04:17:05.289Z,20.10
2018-06-09T04:18:08.677Z,15.73
2018-06-09T04:19:12.080Z,17.00
2018-06-09T04:20:15.496Z,18.67
2018-06-09T04:21:18.984Z,13.60
2018-06-09T04:22:22.451Z,15.70
2018-06-09T04:23:25.871Z,17.97
2018-06-09T04:24:29.318Z,14.90
2018-06-09T04:25:32.751Z,14.90
2018-06-09T04:26:36.172Z,15.53
2018-06-09T04:27:39.648Z,18.60
2018-06-09T04:28:43.110Z,18.30
2018-06-09T04:29:46.595Z,14.30
2018-06-09T04:30:50.025Z,18.27
2018-06-09T04:31:53.508Z,15.87
2018-06-09T04:32:56.912Z,12.00
2018-06-09T04:34:00.629Z,14.47
2018-06-09T04:35:04.042Z,14.93
2018-06-09T04:36:07.451Z,16.43
2018-06-09T04:37:10.842Z,14.47
2018-06-09T04:38:14.251Z,14.60
2018-06-09T04:39:17.690Z,15.23
2018-06-09T04:40:21.081Z,9.27
2018-06-09T04:41:24.488Z,12.03
2018-06-09T04:42:27.893Z,18.73
2018-06-09T04:43:31.451Z,14.30
2018-06-09T04:44:34.834Z,12.13
2018-06-09T04:45:38.236Z,18.00
2018-06-09T04:46:41.636Z,13.53
2018-06-09T04:47:45.031Z,18.30
2018-06-09T04:48:48.475Z,20.83
2018-06-09T04:49:51.882Z,19.67
2018-06-09T04:50:55.336Z,17.60
2018-06-09T04:51:58.826Z,13.10
2018-06-09T04:53:02.266Z,17.53
2018-06-09T04:54:05.850Z,13.50
2018-06-09T04:55:09.235Z,13.00
2018-06-09T04:56:12.644Z,14.03
2018-06-09T04:57:16.072Z,23.87
2018-06-09T04:58:19.479Z,16.13
2018-06-09T04:59:22.879Z,17.63
2018-06-09T05:00:26.271Z,14.47
2018-06-09T05:01:29.692Z,16.33
2018-06-09T05:02:33.167Z,15.50
2018-06-09T05:03:36.713Z,12.17
2018-06-09T05:04:40.115Z,13.07
2018-06-09T05:05:43.508Z,13.80
2018-06-09T05:06:46.933Z,12.03
2018-06-09T05:07:50.302Z,15.73
2018-06-09T05:08:53.697Z,13.23
2018-06-09T05:09:57.078Z,13.43
2018-06-09T05:11:00.460Z,18.40
2018-06-09T05:12:03.877Z,9.67
2018-06-09T05:13:07.254Z,14.50
2018-06-09T05:14:10.696Z,12.53
2018-06-09T05:15:14.089Z,13.20
2018-06-09T05:16:17.472Z,23.10
2018-06-09T05:17:20.915Z,11.67
2018-06-09T05:18:24.333Z,18.13
2018-06-09T05:19:27.729Z,17.33
2018-06-09T05:20:31.114Z,12.90
2018-06-09T05:21:34.552Z,15.00
2018-06-09T05:22:37.950Z,15.20
2018-06-09T05:23:41.364Z,17.23
2018-06-09T05:24:44.747Z,15.57
2018-06-09T05:25:48.142Z,17.43
2018-06-09T05:26:51.576Z,10.70
2018-06-09T05:27:54.980Z,18.27
2018-06-09T05:28:58.399Z,11.70
2018-06-09T05:30:01.800Z,10.73
2018-06-09T05:31:05.207Z,22.33
2018-06-09T05:32:08.619Z,15.37
2018-06-09T05:33:12.149Z,12.80
2018-06-09T05:34:15.565Z,13.77
2018-06-09T05:35:18.934Z,16.07
2018-06-09T05:36:22.746Z,15.10
2018-06-09T05:37:26.134Z,13.77
2018-06-09T05:38:29.595Z,14.33
2018-06-09T05:39:36.147Z,20.27
2018-06-09T05:40:42.333Z,17.10
2018-06-09T05:41:54.656Z,14.50
2018-06-09T05:43:01.283Z,17.60
2018-06-09T05:44:04.710Z,19.57
2018-06-09T05:45:08.097Z,20.93
2018-06-09T05:46:11.577Z,13.97
2018-06-09T05:47:15.015Z,16.73
2018-06-09T05:48:18.420Z,21.53
2018-06-09T05:49:21.856Z,17.93
2018-06-09T05:50:25.267Z,17.77
2018-06-09T05:51:28.693Z,14.60
2018-06-09T05:52:32.307Z,17.80
2018-06-09T05:53:35.735Z,17.63
2018-06-09T05:54:39.178Z,26.00
2018-06-09T05:55:42.577Z,13.70
2018-06-09T05:56:45.970Z,15.53
2018-06-09T05:57:49.797Z,15.43
2018-06-09T05:58:53.283Z,22.70
2018-06-09T05:59:56.686Z,13.47
2018-06-09T06:01:00.400Z,21.57
2018-06-09T06:02:03.822Z,17.10
2018-06-09T06:03:07.306Z,17.53
2018-06-09T06:04:10.763Z,16.73
2018-06-09T06:05:14.165Z,19.10
2018-06-09T06:06:17.579Z,17.57
2018-06-09T06:07:21.002Z,26.47
2018-06-09T06:08:24.426Z,15.03
2018-06-09T06:09:28.239Z,15.70
2018-06-09T06:10:31.707Z,18.70
2018-06-09T06:11:38.468Z,17.70
2018-06-09T06:12:42.522Z,16.70
2018-06-09T06:13:47.448Z,19.00
2018-06-09T06:14:50.980Z,20.53
2018-06-09T06:15:54.608Z,22.50
2018-06-09T06:16:58.107Z,23.83
2018-06-09T06:18:01.551Z,20.33
2018-06-09T06:19:05.210Z,24.30
2018-06-09T06:20:09.714Z,23.67
2018-06-09T06:21:13.140Z,18.03
2018-06-09T06:22:22.021Z,22.00
2018-06-09T06:23:26.478Z,20.80
2018-06-09T06:24:33.400Z,21.60
2018-06-09T06:25:36.828Z,21.50
2018-06-09T06:26:40.244Z,20.10
2018-06-09T06:27:43.637Z,32.23
2018-06-09T06:28:47.043Z,19.53
2018-06-09T06:29:50.489Z,21.23
2018-06-09T06:30:56.235Z,28.17
2018-06-09T06:31:59.703Z,16.00
2018-06-09T06:33:03.135Z,20.50
2018-06-09T06:34:06.569Z,18.93
2018-06-09T06:35:10.041Z,22.93
2018-06-09T06:36:13.468Z,22.60
2018-06-09T06:37:16.881Z,25.80
2018-06-09T06:38:20.263Z,25.73
2018-06-09T06:39:23.654Z,25.63
2018-06-09T06:40:27.099Z,17.97
2018-06-09T06:41:30.533Z,22.57
2018-06-09T06:42:33.955Z,19.80
2018-06-09T06:43:37.386Z,24.20
2018-06-09T06:44:40.800Z,23.33
2018-06-09T06:45:49.989Z,27.97
2018-06-09T06:46:53.438Z,23.90
2018-06-09T06:47:56.838Z,22.13
2018-06-09T06:49:00.253Z,25.00
2018-06-09T06:50:03.719Z,22.83
2018-06-09T06:51:07.162Z,21.77
2018-06-09T06:52:10.568Z,20.43
2018-06-09T06:53:13.992Z,24.53
2018-06-09T06:54:17.416Z,20.67
2018-06-09T06:55:20.820Z,30.67
2018-06-09T06:56:24.237Z,21.10
2018-06-09T06:57:27.669Z,24.47
2018-06-09T06:58:31.068Z,18.50
2018-06-09T06:59:34.512Z,23.77
2018-06-09T07:00:37.925Z,21.17
2018-06-09T07:01:41.353Z,23.40
2018-06-09T07:02:44.738Z,29.70
2018-06-09T07:03:48.125Z,20.67
2018-06-09T07:04:51.548Z,23.10
2018-06-09T07:05:54.975Z,18.83
2018-06-09T07:06:58.378Z,25.70
2018-06-09T07:08:01.797Z,24.53
2018-06-09T07:09:07.819Z,27.03
2018-06-09T07:10:11.239Z,30.43
2018-06-09T07:11:14.659Z,26.77
2018-06-09T07:12:18.160Z,27.43
2018-06-09T07:13:21.555Z,24.20
2018-06-09T07:14:24.982Z,29.80
2018-06-09T07:15:28.374Z,26.53
2018-06-09T07:16:32.056Z,28.57
2018-06-09T07:17:39.292Z,21.93
2018-06-09T07:18:42.723Z,25.87
2018-06-09T07:19:46.129Z,26.97
2018-06-09T07:20:49.527Z,27.23
2018-06-09T07:21:52.956Z,26.30
2018-06-09T07:22:56.381Z,23.13
2018-06-09T07:23:59.777Z,27.77
2018-06-09T07:25:03.181Z,29.07
2018-06-09T07:26:06.641Z,23.07
2018-06-09T07:27:10.057Z,25.37
2018-06-09T07:28:13.460Z,25.27
2018-06-09T07:29:16.872Z,26.77
2018-06-09T07:30:20.298Z,28.67
2018-06-09T07:31:23.698Z,31.27
2018-06-09T07:32:27.175Z,29.70
2018-06-09T07:33:30.569Z,31.30
2018-06-09T07:34:34.011Z,31.00
2018-06-09T07:35:37.432Z,38.17
2018-06-09T07:36:41.027Z,49.47
2018-06-09T07:37:44.460Z,52.30
2018-06-09T07:38:47.899Z,53.20
2018-06-09T07:39:51.288Z,62.40
2018-06-09T07:40:54.690Z,61.83
2018-06-09T07:41:58.166Z,57.83
2018-06-09T07:43:01.565Z,59.23
2018-06-09T07:44:05.076Z,55.03
2018-06-09T07:45:08.495Z,53.87
2018-06-09T07:46:11.940Z,54.60
2018-06-09T07:47:15.379Z,68.07
2018-06-09T07:48:18.781Z,60.13
2018-06-09T07:49:22.177Z,70.70
2018-06-09T07:50:25.592Z,61.83
2018-06-09T07:51:28.996Z,58.10
2018-06-09T07:52:32.434Z,52.27
2018-06-09T07:53:35.822Z,52.50
2018-06-09T07:54:39.229Z,57.50
2018-06-09T07:55:42.625Z,54.37
2018-06-09T07:56:46.026Z,54.13
2018-06-09T07:57:49.404Z,54.87
2018-06-09T07:58:53.375Z,64.53
2018-06-09T07:59:56.840Z,58.60
2018-06-09T08:01:00.264Z,62.73
2018-06-09T08:02:03.692Z,51.87
2018-06-09T08:03:07.156Z,57.20
2018-06-09T08:04:10.647Z,53.43
2018-06-09T08:05:14.066Z,59.87
2018-06-09T08:06:17.555Z,59.27
2018-06-09T08:07:20.943Z,55.97
2018-06-09T08:08:24.340Z,58.60
2018-06-09T08:09:28.031Z,61.50
2018-06-09T08:10:31.423Z,53.30
2018-06-09T08:11:35.021Z,68.57
2018-06-09T08:12:38.451Z,53.50
2018-06-09T08:13:41.949Z,59.30
2018-06-09T08:14:45.338Z,54.73
2018-06-09T08:15:48.795Z,57.93
2018-06-09T08:16:52.234Z,62.07
2018-06-09T08:17:55.677Z,62.93
2018-06-09T08:18:59.089Z,62.40
2018-06-09T08:20:02.493Z,59.17
2018-06-09T08:21:05.919Z,64.10
2018-06-09T08:22:09.342Z,58.43
2018-06-09T08:23:12.736Z,59.93
2018-06-09T08:24:16.175Z,62.57
2018-06-09T08:25:19.575Z,62.63
2018-06-09T08:26:23.192Z,68.77
2018-06-09T08:27:29.983Z,69.17
2018-06-09T08:28:33.412Z,58.77
2018-06-09T08:29:36.820Z,78.93
2018-06-09T08:30:40.264Z,61.73
2018-06-09T08:31:43.684Z,59.73
2018-06-09T08:32:47.100Z,64.40
2018-06-09T08:33:50.525Z,75.17
2018-06-09T08:34:53.939Z,56.37
2018-06-09T08:35:57.377Z,63.43
2018-06-09T08:37:00.838Z,63.93
2018-06-09T08:38:04.253Z,68.57
2018-06-09T08:39:08.075Z,63.23
2018-06-09T08:40:11.502Z,63.50
2018-06-09T08:41:14.946Z,56.10
2018-06-09T08:42:18.406Z,56.00
2018-06-09T08:43:22.431Z,63.70
2018-06-09T08:44:25.914Z,68.17
2018-06-09T08:45:29.370Z,76.73
2018-06-09T08:46:32.790Z,58.73
2018-06-09T08:47:36.208Z,60.90
2018-06-09T08:48:39.632Z,57.67
2018-06-09T08:49:43.075Z,60.07
2018-06-09T08:50:46.516Z,66.43
2018-06-09T08:51:49.957Z,60.73
2018-06-09T08:52:53.404Z,58.70
2018-06-09T08:53:56.839Z,63.07
2018-06-09T08:55:04.812Z,66.23
2018-06-09T08:56:08.215Z,52.03
2018-06-09T08:57:11.639Z,58.43
2018-06-09T08:58:15.051Z,56.87
2018-06-09T08:59:18.485Z,53.43
2018-06-09T09:00:21.893Z,61.90
2018-06-09T09:01:25.366Z,60.63
2018-06-09T09:02:28.788Z,56.50
2018-06-09T09:03:32.216Z,58.07
2018-06-09T09:04:35.621Z,66.67
2018-06-09T09:05:39.030Z,58.87
2018-06-09T09:06:42.461Z,59.47
2018-06-09T09:07:45.877Z,55.27
2018-06-09T09:08:49.296Z,56.40
2018-06-09T09:09:52.718Z,64.87
2018-06-09T09:10:56.138Z,57.83
2018-06-09T09:11:59.576Z,52.57
2018-06-09T09:13:02.991Z,50.73
2018-06-09T09:14:06.463Z,64.03
2018-06-09T09:15:09.875Z,59.33
2018-06-09T09:16:13.461Z,54.33
2018-06-09T09:17:16.908Z,64.80
2018-06-09T09:18:20.290Z,57.90
2018-06-09T09:19:23.704Z,63.93
2018-06-09T09:20:27.102Z,53.57
2018-06-09T09:21:30.515Z,65.43
2018-06-09T09:22:33.947Z,58.80
2018-06-09T09:23:37.436Z,56.97
2018-06-09T09:24:40.850Z,58.60
2018-06-09T09:25:44.238Z,50.33
2018-06-09T09:26:47.704Z,55.27
2018-06-09T09:27:51.141Z,52.43
2018-06-09T09:28:54.583Z,53.80
2018-06-09T09:29:58.859Z,47.30
2018-06-09T09:31:02.299Z,49.87
2018-06-09T09:32:05.765Z,51.13
2018-06-09T09:33:10.130Z,52.90
2018-06-09T09:34:13.657Z,56.53
2018-06-09T09:35:17.650Z,55.20
2018-06-09T09:36:21.405Z,47.53
2018-06-09T09:37:24.985Z,48.07
2018-06-09T09:38:28.658Z,52.00
2018-06-09T09:39:32.818Z,53.27
2018-06-09T09:40:36.733Z,48.83
2018-06-09T09:41:40.664Z,54.33
2018-06-09T09:42:44.612Z,50.80
2018-06-09T09:43:48.251Z,48.27
2018-06-09T09:44:52.044Z,53.17
2018-06-09T09:45:55.664Z,48.67
2018-06-09T09:46:59.237Z,50.13
2018-06-09T09:48:03.249Z,47.30
2018-06-09T09:49:06.992Z,44.70
2018-06-09T09:50:10.734Z,47.80
2018-06-09T09:51:14.224Z,48.37
2018-06-09T09:52:17.908Z,47.73
2018-06-09T09:53:21.545Z,47.20
2018-06-09T09:54:25.704Z,44.90
2018-06-09T09:55:29.377Z,41.33
2018-06-09T09:56:33.905Z,52.03
2018-06-09T09:57:48.831Z,44.93
2018-06-09T09:58:54.753Z,43.60
2018-06-09T09:59:58.265Z,41.37
2018-06-09T10:01:02.381Z,45.10
2018-06-09T10:02:06.358Z,38.03
2018-06-09T10:03:10.598Z,41.43
2018-06-09T10:04:14.430Z,36.87
2018-06-09T10:05:18.205Z,36.97
2018-06-09T10:06:21.673Z,46.90
2018-06-09T10:07:25.817Z,39.57
2018-06-09T10:08:30.334Z,38.60
2018-06-09T10:09:34.939Z,40.40
2018-06-09T10:10:38.908Z,35.70
2018-06-09T10:11:42.575Z,36.97
2018-06-09T10:12:46.994Z,35.60
2018-06-09T10:13:51.003Z,35.63
2018-06-09T10:14:54.638Z,34.67
2018-06-09T10:16:09.241Z,37.73
2018-06-09T10:17:13.011Z,34.43
2018-06-09T10:18:16.988Z,34.40
2018-06-09T10:19:20.388Z,37.50
2018-06-09T10:20:23.812Z,33.23
2018-06-09T10:21:27.329Z,30.00
2018-06-09T10:22:30.914Z,34.03
2018-06-09T10:23:34.409Z,34.23
2018-06-09T10:24:37.921Z,35.73
2018-06-09T10:25:41.397Z,32.57
2018-06-09T10:26:48.370Z,34.87
2018-06-09T10:27:56.477Z,33.80
2018-06-09T10:29:00.004Z,31.73
2018-06-09T10:30:03.703Z,32.67
2018-06-09T10:31:07.272Z,31.60
2018-06-09T10:32:10.955Z,34.00
2018-06-09T10:33:14.494Z,31.20
2018-06-09T10:34:17.892Z,29.20
2018-06-09T10:35:21.320Z,30.80
2018-06-09T10:36:24.880Z,28.47
2018-06-09T10:37:28.596Z,29.13
2018-06-09T10:38:32.361Z,27.03
2018-06-09T10:39:35.933Z,30.50
2018-06-09T10:40:39.491Z,28.70
2018-06-09T10:41:42.984Z,30.07
2018-06-09T10:42:46.413Z,32.40
2018-06-09T10:43:49.809Z,24.47
2018-06-09T10:44:53.292Z,39.33
2018-06-09T10:45:57.085Z,33.03
2018-06-09T10:47:00.513Z,27.70
2018-06-09T10:48:04.002Z,29.50
2018-06-09T10:49:07.441Z,32.47
2018-06-09T10:50:11.246Z,26.00
2018-06-09T10:51:14.690Z,24.13
2018-06-09T10:52:18.241Z,29.57
2018-06-09T10:53:21.655Z,31.27
2018-06-09T10:54:25.398Z,27.63
2018-06-09T10:55:28.893Z,24.50
2018-06-09T10:56:32.368Z,62.67
2018-06-09T10:57:36.170Z,24.90
2018-06-09T10:58:39.501Z,30.10
2018-06-09T10:59:42.940Z,30.00
2018-06-09T11:00:46.379Z,29.87
2018-06-09T11:01:49.808Z,26.03
2018-06-09T11:02:53.278Z,31.60
2018-06-09T11:03:57.703Z,27.23
2018-06-09T11:05:01.212Z,42.43
2018-06-09T11:06:04.721Z,32.07
2018-06-09T11:07:08.126Z,31.53
2018-06-09T11:08:11.700Z,28.43
2018-06-09T11:09:15.128Z,25.40
2018-06-09T11:10:18.549Z,28.73
2018-06-09T11:11:21.964Z,26.83
2018-06-09T11:12:25.393Z,32.70
2018-06-09T11:13:28.832Z,30.07
2018-06-09T11:14:32.225Z,26.67
2018-06-09T11:15:35.609Z,30.23
2018-06-09T11:16:39.142Z,25.93
2018-06-09T11:17:42.541Z,29.70
2018-06-09T11:18:45.987Z,29.47
2018-06-09T11:19:49.424Z,30.73
2018-06-09T11:20:52.952Z,30.17
2018-06-09T11:21:56.399Z,26.10
2018-06-09T11:22:59.825Z,32.37
2018-06-09T11:24:03.473Z,30.13
2018-06-09T11:25:06.881Z,30.07
2018-06-09T11:26:10.326Z,31.97
2018-06-09T11:27:13.744Z,30.60
2018-06-09T11:28:19.147Z,29.13
2018-06-09T11:29:22.583Z,28.27
2018-06-09T11:30:26.104Z,28.17
2018-06-09T11:31:29.564Z,33.33
2018-06-09T11:32:32.985Z,34.60
2018-06-09T11:33:36.642Z,35.70
2018-06-09T11:34:40.149Z,34.80
2018-06-09T11:35:43.612Z,33.97
2018-06-09T11:36:47.037Z,29.50
2018-06-09T11:37:50.461Z,30.10
2018-06-09T11:38:54.130Z,29.60
2018-06-09T11:39:57.771Z,36.40
2018-06-09T11:41:01.328Z,31.77
2018-06-09T11:42:04.769Z,26.93
2018-06-09T11:43:08.341Z,29.97
2018-06-09T11:44:11.888Z,35.23
2018-06-09T11:45:15.326Z,34.57
2018-06-09T11:46:18.759Z,28.70
2018-06-09T11:47:22.158Z,25.87
2018-06-09T11:48:25.558Z,34.83
2018-06-09T11:49:29.037Z,30.23
2018-06-09T11:50:32.495Z,30.70
2018-06-09T11:51:35.892Z,35.00
2018-06-09T11:52:39.354Z,29.10
2018-06-09T11:53:42.757Z,44.97
2018-06-09T11:54:46.164Z,35.73
2018-06-09T11:55:49.600Z,30.70
2018-06-09T11:56:53.038Z,36.63
2018-06-09T11:57:56.547Z,32.57
2018-06-09T11:58:59.970Z,30.63
2018-06-09T12:00:03.503Z,32.20
2018-06-09T12:01:06.951Z,34.30
2018-06-09T12:02:10.372Z,38.33
2018-06-09T12:03:13.791Z,30.53
2018-06-09T12:04:17.240Z,30.30
2018-06-09T12:05:20.681Z,30.03
2018-06-09T12:06:24.119Z,33.40
2018-06-09T12:07:27.547Z,32.57
2018-06-09T12:08:30.987Z,34.00
2018-06-09T12:09:34.402Z,38.77
2018-06-09T12:10:37.906Z,34.40
2018-06-09T12:11:41.343Z,38.97
2018-06-09T12:12:44.761Z,38.53
2018-06-09T12:13:48.202Z,42.90
2018-06-09T12:14:51.618Z,33.30
2018-06-09T12:15:55.075Z,30.40
2018-06-09T12:17:00.624Z,40.10
2018-06-09T12:18:05.849Z,33.53
2018-06-09T12:19:11.081Z,36.93
2018-06-09T12:20:16.376Z,39.37
2018-06-09T12:21:21.864Z,34.80
2018-06-09T12:22:26.568Z,26.33
2018-06-09T12:23:31.288Z,37.53
2018-06-09T12:24:36.236Z,29.37
2018-06-09T12:25:41.138Z,36.67
2018-06-09T12:26:46.092Z,31.53
2018-06-09T12:27:50.805Z,31.73
2018-06-09T12:28:56.320Z,29.93
2018-06-09T12:29:59.834Z,27.37
2018-06-09T12:31:03.305Z,27.60
2018-06-09T12:32:06.727Z,31.33
2018-06-09T12:33:10.137Z,24.97
2018-06-09T12:34:13.561Z,27.27
2018-06-09T12:35:17.013Z,22.60
2018-06-09T12:36:20.460Z,26.57
2018-06-09T12:37:23.885Z,28.53
2018-06-09T12:38:27.289Z,27.97
2018-06-09T12:39:31.145Z,24.37
2018-06-09T12:40:34.651Z,39.43
2018-06-09T12:41:38.096Z,27.73
2018-06-09T12:42:41.550Z,38.13
2018-06-09T12:43:45.126Z,33.50
2018-06-09T12:44:48.571Z,30.60
2018-06-09T12:45:51.998Z,28.73
2018-06-09T12:46:55.644Z,27.00
2018-06-09T12:47:59.079Z,20.93
2018-06-09T12:49:02.511Z,25.43
2018-06-09T12:50:05.947Z,24.70
2018-06-09T12:51:09.390Z,31.27
2018-06-09T12:52:16.526Z,26.57
2018-06-09T12:53:19.987Z,21.00
2018-06-09T12:54:23.377Z,19.13
2018-06-09T12:55:26.875Z,25.50
2018-06-09T12:56:30.328Z,25.87
2018-06-09T12:57:33.828Z,25.93
2018-06-09T12:58:37.251Z,22.57
2018-06-09T12:59:40.688Z,24.77
2018-06-09T13:00:44.217Z,29.10
2018-06-09T13:01:47.708Z,22.87
2018-06-09T13:02:51.145Z,39.67
2018-06-09T13:03:54.543Z,23.67
2018-06-09T13:04:58.004Z,17.97
2018-06-09T13:06:01.459Z,20.83
2018-06-09T13:07:04.943Z,25.93
2018-06-09T13:08:08.379Z,22.17
2018-06-09T13:09:11.905Z,20.10
2018-06-09T13:10:15.431Z,20.90
2018-06-09T13:11:18.968Z,22.63
2018-06-09T13:12:22.545Z,22.47
2018-06-09T13:13:25.995Z,20.80
2018-06-09T13:14:29.394Z,26.57
2018-06-09T13:15:32.827Z,22.40
2018-06-09T13:16:36.311Z,19.67
2018-06-09T13:17:39.709Z,17.60
2018-06-09T13:18:43.122Z,23.57
2018-06-09T13:19:46.529Z,17.27
2018-06-09T13:20:49.951Z,25.70
2018-06-09T13:21:53.373Z,22.50
2018-06-09T13:22:56.774Z,20.27
2018-06-09T13:24:00.225Z,25.40
2018-06-09T13:25:03.667Z,22.87
2018-06-09T13:26:07.080Z,24.17
2018-06-09T13:27:10.496Z,27.33
2018-06-09T13:28:13.887Z,27.43
2018-06-09T13:29:17.326Z,29.23
2018-06-09T13:30:20.803Z,28.17
2018-06-09T13:31:24.486Z,25.80
2018-06-09T13:32:27.913Z,23.87
2018-06-09T13:33:31.304Z,28.63
2018-06-09T13:34:34.724Z,25.60
2018-06-09T13:35:38.160Z,23.20
2018-06-09T13:36:41.609Z,24.00
2018-06-09T13:37:45.003Z,22.43
2018-06-09T13:38:48.416Z,25.50